Time;durP1;ratioP1;P1;durP2;ratioP2;P2;SDS_P1;SDS_P2;PMS_P1;PMS_P2;Temp;Humidity;BMP_temperature;BMP_pressure;BME280_temperature;BME280_humidity;BME280_pressure;Samples;Min_cycle;Max_cycle;Signal;HPM_P1;HPM_P2
2023/08/14 00:00:30;;;;;;;3.88;2.40;;;21.40;99.90;;;;;;6279021;28;20036;-82
2023/08/14 00:03:32;;;;;;;3.17;2.35;;;21.40;99.90;;;;;;6272719;28;20049;-82
2023/08/14 00:06:33;;;;;;;5.85;2.75;;;21.40;99.90;;;;;;6272736;28;20048;-82
2023/08/14 00:09:35;;;;;;;5.78;3.47;;;21.40;99.90;;;;;;6272427;28;20056;-83
2023/08/14 00:12:38;;;;;;;3.03;2.00;;;21.40;99.90;;;;;;6277854;28;20056;-83
2023/08/14 00:15:40;;;;;;;5.88;3.72;;;21.40;99.90;;;;;;6276784;28;20041;-83
2023/08/14 00:18:41;;;;;;;3.80;2.40;;;21.50;99.90;;;;;;6275922;28;20056;-83
2023/08/14 00:21:43;;;;;;;5.63;3.00;;;21.50;99.90;;;;;;6275967;28;20060;-83
2023/08/14 00:24:45;;;;;;;5.38;2.60;;;21.50;99.90;;;;;;6281226;28;20048;-83
2023/08/14 00:27:48;;;;;;;3.70;3.00;;;21.50;99.90;;;;;;6315020;28;20148;-82
2023/08/14 00:30:49;;;;;;;4.38;2.45;;;21.50;99.90;;;;;;6315489;28;20051;-82
2023/08/14 00:33:52;;;;;;;5.97;3.13;;;21.40;99.90;;;;;;6293454;28;20053;-82
2023/08/14 00:36:53;;;;;;;7.95;4.63;;;21.50;99.90;;;;;;6301408;28;20055;-83
2023/08/14 00:39:55;;;;;;;9.80;2.33;;;21.60;99.90;;;;;;6301444;28;20052;-82
2023/08/14 00:42:58;;;;;;;3.88;2.45;;;21.60;99.90;;;;;;6302394;28;20068;-82
2023/08/14 00:46:01;;;;;;;8.65;3.20;;;21.60;99.90;;;;;;6301082;28;20127;-82
2023/08/14 00:49:03;;;;;;;7.20;3.25;;;21.60;99.90;;;;;;6302048;28;20106;-82
2023/08/14 00:52:06;;;;;;;11.02;5.28;;;21.50;99.90;;;;;;6301090;28;20037;-83
2023/08/14 00:55:12;;;;;;;9.20;3.58;;;21.50;99.90;;;;;;6301830;28;20045;-83
2023/08/14 00:58:16;;;;;;;6.35;3.00;;;21.50;99.90;;;;;;6300713;28;20052;-83
2023/08/14 01:01:19;;;;;;;7.82;3.00;;;21.50;99.90;;;;;;6300331;28;20484;-82
2023/08/14 01:04:20;;;;;;;8.15;3.30;;;21.40;99.90;;;;;;6300502;28;20475;-83
2023/08/14 01:07:24;;;;;;;5.15;3.17;;;21.50;99.90;;;;;;6301572;28;20044;-82
2023/08/14 01:10:39;;;;;;;6.97;5.47;;;21.50;99.90;;;;;;6301561;28;20052;-82
2023/08/14 01:13:51;;;;;;;4.45;3.05;;;21.50;99.90;;;;;;6301210;28;20045;-81
2023/08/14 01:17:00;;;;;;;6.90;3.28;;;21.40;99.90;;;;;;6299975;28;20135;-82
2023/08/14 01:20:03;;;;;;;5.05;3.42;;;21.40;99.90;;;;;;6277110;28;20147;-83
2023/08/14 01:23:22;;;;;;;4.43;3.42;;;21.30;99.90;;;;;;6276024;28;20053;-82
2023/08/14 01:26:25;;;;;;;;;;;21.40;99.90;;;;;;6276330;28;20450;-83
2023/08/14 01:29:30;;;;;;;6.57;4.28;;;21.40;99.90;;;;;;6275773;28;19925;-82
2023/08/14 01:32:31;;;;;;;4.53;3.95;;;21.40;99.90;;;;;;6275632;28;20053;-82
2023/08/14 01:35:39;;;;;;;8.35;3.97;;;21.40;99.90;;;;;;6275468;28;20056;-81
2023/08/14 01:38:47;;;;;;;5.72;3.78;;;21.50;99.90;;;;;;6275281;28;20049;-82
2023/08/14 01:41:59;;;;;;;8.60;4.13;;;21.50;99.90;;;;;;6274577;28;20052;-82
2023/08/14 01:45:06;;;;;;;5.07;3.25;;;21.50;99.90;;;;;;6274947;28;20041;-82
2023/08/14 01:48:09;;;;;;;5.63;3.63;;;21.50;99.90;;;;;;6274709;28;20045;-82
2023/08/14 01:51:12;;;;;;;11.00;3.55;;;21.40;99.90;;;;;;6275302;28;20052;-82
2023/08/14 01:54:13;;;;;;;8.60;3.35;;;21.40;99.90;;;;;;6285848;28;20424;-82
2023/08/14 01:57:16;;;;;;;4.20;3.67;;;21.40;99.90;;;;;;6299305;28;20040;-82
2023/08/14 02:00:18;;;;;;;6.75;4.20;;;21.30;99.90;;;;;;6298644;28;20052;-81
2023/08/14 02:03:20;;;;;;;5.88;3.50;;;21.30;99.90;;;;;;6300272;28;20056;-82
2023/08/14 02:06:22;;;;;;;5.72;3.92;;;21.30;99.90;;;;;;6299367;28;20041;-82
2023/08/14 02:09:23;;;;;;;5.03;3.72;;;21.30;99.90;;;;;;6298883;28;20044;-81
2023/08/14 02:12:28;;;;;;;3.58;3.22;;;21.20;99.90;;;;;;6299771;28;20600;-82
2023/08/14 02:15:30;;;;;;;4.80;4.25;;;21.20;99.90;;;;;;6299152;28;20044;-82
2023/08/14 02:18:32;;;;;;;4.13;3.72;;;21.20;99.90;;;;;;6298736;28;20391;-81
2023/08/14 02:21:33;;;;;;;10.13;4.15;;;21.20;99.90;;;;;;6298678;28;20051;-81
2023/08/14 02:24:35;;;;;;;9.93;4.18;;;21.10;99.90;;;;;;6296986;28;20041;-82
2023/08/14 02:27:38;;;;;;;11.68;4.07;;;21.00;99.90;;;;;;6285609;28;20050;-81
2023/08/14 02:30:41;;;;;;;4.95;4.47;;;20.90;99.90;;;;;;6299547;28;20055;-81
2023/08/14 02:33:43;;;;;;;8.25;4.43;;;21.00;99.90;;;;;;6297513;28;20052;-81
2023/08/14 02:36:45;;;;;;;6.53;4.10;;;21.00;99.90;;;;;;6298302;28;20037;-82
2023/08/14 02:39:47;;;;;;;6.72;4.30;;;21.00;99.90;;;;;;6298907;28;20060;-83
2023/08/14 02:42:50;;;;;;;6.20;4.55;;;21.00;99.90;;;;;;6298497;28;20432;-81
2023/08/14 02:45:51;;;;;;;8.73;3.92;;;21.00;99.90;;;;;;6298542;28;20419;-82
2023/08/14 02:48:53;;;;;;;12.25;3.80;;;21.00;99.90;;;;;;6298811;28;20040;-82
2023/08/14 02:51:55;;;;;;;8.77;4.20;;;20.90;99.90;;;;;;6298311;28;20052;-81
2023/08/14 02:54:56;;;;;;;4.45;3.40;;;20.90;99.90;;;;;;6299203;28;20053;-81
2023/08/14 02:58:00;;;;;;;14.50;4.40;;;20.80;99.90;;;;;;6296006;28;20044;-81
2023/08/14 03:01:01;;;;;;;11.20;3.83;;;20.70;99.90;;;;;;6296651;28;20060;-82
2023/08/14 03:04:03;;;;;;;6.00;4.13;;;20.50;99.90;;;;;;6296299;28;20067;-82
2023/08/14 03:07:05;;;;;;;7.80;4.43;;;20.40;99.90;;;;;;6297376;28;20059;-82
2023/08/14 03:10:07;;;;;;;8.75;4.30;;;20.30;99.90;;;;;;6296505;28;20048;-82
2023/08/14 03:13:10;;;;;;;10.23;4.18;;;20.30;99.90;;;;;;6296554;28;20042;-81
2023/08/14 03:16:12;;;;;;;7.78;4.05;;;20.20;99.90;;;;;;6296425;28;20387;-82
2023/08/14 03:19:14;;;;;;;8.88;4.57;;;20.10;99.90;;;;;;6297327;28;20162;-82
2023/08/14 03:22:15;;;;;;;6.75;4.25;;;20.10;99.90;;;;;;6296493;28;20055;-82
2023/08/14 03:25:17;;;;;;;4.75;4.35;;;20.10;99.90;;;;;;6296993;28;20048;-81
2023/08/14 03:28:20;;;;;;;12.10;4.28;;;20.00;99.90;;;;;;6296271;28;20404;-82
2023/08/14 03:31:22;;;;;;;8.32;4.22;;;20.10;99.90;;;;;;6296808;28;20049;-82
2023/08/14 03:34:23;;;;;;;13.95;4.50;;;20.10;99.90;;;;;;6296257;28;20041;-82
2023/08/14 03:37:25;;;;;;;14.77;6.45;;;20.00;99.90;;;;;;6296254;28;20045;-82
2023/08/14 03:40:27;;;;;;;4.32;3.92;;;20.00;99.90;;;;;;6296756;28;20044;-82
2023/08/14 03:43:30;;;;;;;5.20;4.63;;;19.90;99.90;;;;;;6299378;28;20396;-82
2023/08/14 03:46:32;;;;;;;4.85;3.92;;;19.90;99.90;;;;;;6297474;28;20117;-82
2023/08/14 03:49:34;;;;;;;11.02;4.43;;;19.90;99.90;;;;;;6298107;28;20059;-82
2023/08/14 03:52:35;;;;;;;7.43;4.80;;;19.90;99.90;;;;;;6298068;28;20361;-82
2023/08/14 03:55:37;;;;;;;9.68;5.10;;;19.90;99.90;;;;;;6298919;28;20052;-82
2023/08/14 03:58:40;;;;;;;10.63;6.97;;;19.90;99.90;;;;;;6298149;28;20079;-82
2023/08/14 04:01:43;;;;;;;7.65;4.00;;;19.80;99.90;;;;;;6298527;28;20063;-82
2023/08/14 04:04:44;;;;;;;10.65;4.20;;;19.80;99.90;;;;;;6297890;28;20072;-83
2023/08/14 04:07:46;;;;;;;9.40;4.57;;;19.70;99.90;;;;;;6297233;28;20048;-82
2023/08/14 04:10:53;;;;;;;7.93;3.75;;;19.80;99.90;;;;;;6297585;28;20500;-82
2023/08/14 04:13:56;;;;;;;8.43;4.35;;;19.60;99.90;;;;;;6297186;28;20049;-81
2023/08/14 04:16:58;;;;;;;11.38;5.13;;;19.60;99.90;;;;;;6297826;28;20048;-82
2023/08/14 04:20:00;;;;;;;9.60;5.00;;;19.60;99.90;;;;;;6296683;28;20041;-82
2023/08/14 04:23:01;;;;;;;10.00;4.97;;;19.50;99.90;;;;;;6282513;28;20045;-81
2023/08/14 04:26:03;;;;;;;10.55;5.60;;;19.50;99.90;;;;;;6271519;28;20411;-81
2023/08/14 04:29:07;;;;;;;9.57;5.10;;;19.40;99.90;;;;;;6271701;28;20492;-82
2023/08/14 04:32:09;;;;;;;8.70;4.57;;;19.50;99.90;;;;;;6272119;28;20067;-82
2023/08/14 04:35:10;;;;;;;11.48;4.38;;;19.50;99.90;;;;;;6273466;28;20056;-82
2023/08/14 04:38:12;;;;;;;6.28;4.10;;;19.50;99.90;;;;;;6272043;28;20053;-81
2023/08/14 04:41:14;;;;;;;10.52;4.07;;;19.50;99.90;;;;;;6272061;28;20056;-82
2023/08/14 04:44:17;;;;;;;6.50;4.70;;;19.50;99.90;;;;;;6272807;28;20052;-81
2023/08/14 04:47:18;;;;;;;11.00;4.40;;;19.50;99.90;;;;;;6272617;28;20049;-82
2023/08/14 04:50:20;;;;;;;9.52;5.20;;;19.60;99.90;;;;;;6272326;28;20045;-81
2023/08/14 04:53:22;;;;;;;6.50;4.32;;;19.60;99.90;;;;;;6272399;28;20143;-81
2023/08/14 04:56:23;;;;;;;7.30;5.75;;;19.70;99.90;;;;;;6273331;28;20485;-81
2023/08/14 04:59:26;;;;;;;6.20;5.03;;;19.80;99.90;;;;;;6277453;28;20060;-82
2023/08/14 05:02:29;;;;;;;6.65;4.22;;;19.90;99.90;;;;;;6277272;28;20041;-82
2023/08/14 05:05:31;;;;;;;5.85;5.28;;;19.90;99.90;;;;;;6275763;28;20053;-82
2023/08/14 05:08:33;;;;;;;9.38;5.47;;;20.10;99.90;;;;;;6276900;28;20052;-82
2023/08/14 05:11:34;;;;;;;6.70;3.97;;;20.10;99.90;;;;;;6277889;28;20543;-83
2023/08/14 05:14:37;;;;;;;5.90;4.80;;;20.20;99.90;;;;;;6276886;28;20052;-83
2023/08/14 05:17:39;;;;;;;6.57;5.50;;;20.30;99.90;;;;;;6276804;28;20049;-82
2023/08/14 05:20:43;;;;;;;5.10;4.63;;;20.50;99.90;;;;;;6276330;28;20041;-82
2023/08/14 05:23:45;;;;;;;10.10;4.20;;;20.60;99.90;;;;;;6276977;28;20053;-82
2023/08/14 05:26:46;;;;;;;7.00;4.28;;;20.80;99.90;;;;;;6276568;28;20041;-83
2023/08/14 05:29:49;;;;;;;7.80;5.28;;;20.90;99.90;;;;;;6276756;28;20056;-83
2023/08/14 05:32:51;;;;;;;5.07;4.57;;;21.00;99.90;;;;;;6277067;28;20052;-83
2023/08/14 05:35:53;;;;;;;7.38;4.35;;;21.10;99.90;;;;;;6277399;28;20049;-83
2023/08/14 05:38:54;;;;;;;6.20;4.43;;;21.20;99.90;;;;;;6277783;28;20051;-83
2023/08/14 05:41:56;;;;;;;6.30;4.80;;;21.40;99.90;;;;;;6277001;28;20064;-83
2023/08/14 05:44:59;;;;;;;11.25;4.47;;;21.40;99.90;;;;;;6276084;28;20040;-82
2023/08/14 05:48:01;;;;;;;8.32;3.50;;;21.50;99.90;;;;;;6278262;28;20052;-83
2023/08/14 05:51:03;;;;;;;7.00;3.65;;;21.70;99.90;;;;;;6301888;28;20048;-83
2023/08/14 05:54:05;;;;;;;15.85;4.32;;;21.80;99.90;;;;;;6300763;28;20098;-83
2023/08/14 05:57:07;;;;;;;6.95;4.15;;;21.90;99.90;;;;;;6272933;27;20206;-82
2023/08/14 06:00:11;;;;;;;9.20;4.25;;;22.00;99.90;;;;;;6292626;28;20639;-82
2023/08/14 06:03:13;;;;;;;5.20;3.60;;;22.30;99.90;;;;;;6300617;28;20051;-81
2023/08/14 06:06:16;;;;;;;11.48;4.47;;;22.50;99.90;;;;;;6293498;28;20135;-82
2023/08/14 06:09:19;;;;;;;6.28;4.10;;;22.90;99.90;;;;;;6296402;28;20048;-82
2023/08/14 06:12:21;;;;;;;3.83;3.53;;;23.40;99.90;;;;;;6297644;28;20086;-82
2023/08/14 06:15:24;;;;;;;7.47;4.20;;;24.10;99.90;;;;;;6282150;28;20056;-82
2023/08/14 06:18:26;;;;;;;10.48;5.65;;;24.50;99.90;;;;;;6277931;28;20151;-83
2023/08/14 06:21:28;;;;;;;6.80;4.43;;;24.80;99.90;;;;;;6278183;28;20144;-82
2023/08/14 06:24:29;;;;;;;6.43;3.10;;;24.90;99.90;;;;;;6293391;28;20812;-82
2023/08/14 06:27:31;;;;;;;8.73;3.65;;;25.10;99.90;;;;;;6302112;28;20051;-83
2023/08/14 06:30:34;;;;;;;6.80;2.97;;;25.10;99.90;;;;;;6287821;28;20111;-83
2023/08/14 06:33:36;;;;;;;5.25;4.30;;;25.10;99.90;;;;;;6300668;28;20056;-82
2023/08/14 06:36:38;;;;;;;4.97;4.55;;;25.10;99.90;;;;;;6300583;28;20415;-85
2023/08/14 06:39:39;;;;;;;4.05;3.67;;;25.00;99.90;;;;;;6300097;28;20045;-83
2023/08/14 06:42:41;;;;;;;6.45;3.53;;;25.00;99.90;;;;;;6301084;28;20055;-82
2023/08/14 06:45:45;;;;;;;5.82;3.58;;;25.10;99.90;;;;;;6299606;28;20048;-83
2023/08/14 06:48:47;;;;;;;6.20;3.40;;;25.30;99.90;;;;;;6299566;28;20510;-83
2023/08/14 06:51:49;;;;;;;4.55;3.25;;;25.80;99.90;;;;;;6299194;28;20044;-83
2023/08/14 06:54:50;;;;;;;10.52;2.67;;;26.50;99.90;;;;;;6300701;28;20496;-84
2023/08/14 06:57:52;;;;;;;4.53;3.05;;;27.30;99.90;;;;;;6297635;28;20437;-85
2023/08/14 07:00:55;;;;;;;11.63;3.22;;;28.00;99.90;;;;;;6276872;28;20151;-86
2023/08/14 07:03:57;;;;;;;3.55;3.05;;;28.90;99.90;;;;;;6290442;28;20044;-84
2023/08/14 07:06:59;;;;;;;4.25;2.50;;;30.00;99.90;;;;;;6302794;28;20056;-83
2023/08/14 07:10:00;;;;;;;3.70;2.50;;;30.80;99.90;;;;;;6298685;28;20507;-84
2023/08/14 07:13:02;;;;;;;4.28;2.10;;;31.60;99.90;;;;;;6300200;28;20041;-84
2023/08/14 07:16:05;;;;;;;3.20;2.75;;;32.30;99.10;;;;;;6300238;28;20036;-84
2023/08/14 07:19:07;;;;;;;4.07;2.30;;;32.90;97.00;;;;;;6300300;28;20044;-84
2023/08/14 07:22:09;;;;;;;3.58;2.60;;;33.40;95.40;;;;;;6300266;28;20045;-84
2023/08/14 07:25:11;;;;;;;2.38;2.13;;;33.90;93.50;;;;;;6301604;28;20041;-84
2023/08/14 07:28:14;;;;;;;4.47;2.80;;;34.30;91.80;;;;;;6300414;28;20521;-83
2023/08/14 07:31:16;;;;;;;5.38;2.70;;;34.70;90.30;;;;;;6283786;28;20056;-84
2023/08/14 07:34:18;;;;;;;3.75;3.00;;;35.00;88.00;;;;;;6276235;28;20048;-83
2023/08/14 07:37:20;;;;;;;4.80;2.95;;;35.40;85.70;;;;;;6276113;28;20075;-84
2023/08/14 07:40:22;;;;;;;10.07;2.70;;;35.50;82.80;;;;;;6273615;28;20037;-84
2023/08/14 07:43:24;;;;;;;6.15;3.53;;;35.40;81.40;;;;;;6273594;28;20125;-84
2023/08/14 07:46:27;;;;;;;4.20;2.70;;;35.50;79.80;;;;;;6291715;28;20092;-83
2023/08/14 07:49:28;;;;;;;4.63;2.88;;;35.80;77.90;;;;;;6298115;28;20091;-83
2023/08/14 07:52:30;;;;;;;4.70;2.88;;;35.90;77.00;;;;;;6273578;28;20415;-83
2023/08/14 07:55:32;;;;;;;2.70;2.10;;;36.20;75.90;;;;;;6273806;28;20049;-84
2023/08/14 07:58:33;;;;;;;3.95;2.13;;;36.50;74.50;;;;;;6285408;28;20045;-85
2023/08/14 08:01:37;;;;;;;8.18;2.40;;;36.50;73.10;;;;;;6281432;28;20048;-83
2023/08/14 08:04:38;;;;;;;3.35;2.88;;;36.50;72.10;;;;;;6298069;28;20040;-84
2023/08/14 08:07:40;;;;;;;4.63;2.22;;;36.40;71.90;;;;;;6300985;28;20045;-83
2023/08/14 08:10:42;;;;;;;4.43;1.88;;;36.50;71.10;;;;;;6301536;28;20052;-83
2023/08/14 08:13:43;;;;;;;5.35;2.80;;;36.60;70.10;;;;;;6306728;28;20036;-83
2023/08/14 08:16:48;;;;;;;4.10;2.70;;;36.70;68.60;;;;;;6309576;28;20044;-84
2023/08/14 08:19:51;;;;;;;3.45;2.60;;;36.50;67.90;;;;;;6298644;28;20052;-84
2023/08/14 08:22:53;;;;;;;3.03;2.60;;;36.40;67.90;;;;;;6298514;28;20419;-83
2023/08/14 08:25:54;;;;;;;4.75;2.47;;;36.00;68.50;;;;;;6296768;28;20423;-84
2023/08/14 08:28:56;;;;;;;2.80;2.50;;;35.80;69.20;;;;;;6285685;28;20120;-84
2023/08/14 08:31:59;;;;;;;2.90;2.45;;;35.80;69.10;;;;;;6273840;28;20064;-84
2023/08/14 08:35:01;;;;;;;4.25;3.42;;;35.90;69.30;;;;;;6288542;28;20063;-84
2023/08/14 08:38:03;;;;;;;4.95;2.45;;;35.80;68.80;;;;;;6300849;28;20036;-85
2023/08/14 08:41:05;;;;;;;4.20;3.08;;;35.70;68.30;;;;;;6301096;28;20131;-84
2023/08/14 08:44:08;;;;;;;2.78;2.47;;;35.70;68.70;;;;;;6302961;28;20044;-84
2023/08/14 08:47:15;;;;;;;3.53;2.70;;;36.10;68.50;;;;;;6303605;28;20513;-83
2023/08/14 08:50:17;;;;;;;3.08;2.65;;;36.40;67.80;;;;;;6303152;28;20048;-83
2023/08/14 08:53:19;;;;;;;3.53;2.83;;;36.80;67.10;;;;;;6303737;28;20056;-84
2023/08/14 08:56:21;;;;;;;5.10;2.63;;;37.10;66.40;;;;;;6302344;28;20040;-84
2023/08/14 08:59:23;;;;;;;5.82;2.53;;;37.60;65.30;;;;;;6294274;28;20040;-84
2023/08/14 09:02:27;;;;;;;4.35;3.20;;;38.00;63.90;;;;;;6298597;28;20131;-84
2023/08/14 09:05:30;;;;;;;3.47;2.65;;;37.50;63.10;;;;;;6298925;28;20049;-84
2023/08/14 09:08:32;;;;;;;3.88;2.25;;;37.30;64.00;;;;;;6303609;28;20511;-83
2023/08/14 09:11:34;;;;;;;3.20;2.53;;;37.50;63.30;;;;;;6301117;28;20048;-84
2023/08/14 09:14:42;;;;;;;2.00;1.77;;;37.20;63.20;;;;;;6300834;28;20068;-84
2023/08/14 09:17:45;;;;;;;5.47;2.67;;;36.90;63.30;;;;;;6300710;28;20048;-83
2023/08/14 09:20:46;;;;;;;3.97;2.25;;;37.00;63.60;;;;;;6301409;28;20041;-83
2023/08/14 09:23:48;;;;;;;2.83;1.98;;;37.50;63.30;;;;;;6301410;28;20510;-83
2023/08/14 09:26:50;;;;;;;5.00;2.22;;;37.80;62.50;;;;;;6303596;28;20048;-84
2023/08/14 09:29:54;;;;;;;2.53;2.13;;;38.10;62.10;;;;;;6300481;28;20057;-83
2023/08/14 09:32:57;;;;;;;5.72;1.85;;;38.20;61.30;;;;;;6300858;28;20051;-84
2023/08/14 09:35:59;;;;;;;2.25;2.05;;;38.30;60.90;;;;;;6300017;28;20048;-83
2023/08/14 09:39:01;;;;;;;4.25;2.25;;;38.00;60.70;;;;;;6300736;28;20048;-83
2023/08/14 09:42:03;;;;;;;5.68;2.38;;;37.90;61.00;;;;;;6300225;28;20045;-84
2023/08/14 09:45:06;;;;;;;3.83;2.22;;;38.00;60.40;;;;;;6300576;28;20060;-84
2023/08/14 09:48:09;;;;;;;5.38;3.05;;;38.30;59.60;;;;;;6300580;28;20044;-84
2023/08/14 09:51:12;;;;;;;5.63;2.47;;;38.40;58.80;;;;;;6300890;28;20056;-84
2023/08/14 09:54:14;;;;;;;3.10;2.58;;;38.40;58.20;;;;;;6299650;28;20049;-83
2023/08/14 09:57:16;;;;;;;5.80;2.20;;;38.00;58.60;;;;;;6300145;28;20041;-84
2023/08/14 10:00:18;;;;;;;4.35;2.05;;;37.90;59.40;;;;;;6300219;28;20052;-84
2023/08/14 10:03:22;;;;;;;3.15;1.80;;;38.00;58.50;;;;;;6300985;28;20056;-83
2023/08/14 10:06:26;;;;;;;3.35;1.90;;;38.20;57.60;;;;;;6299426;28;20418;-83
2023/08/14 10:09:31;;;;;;;4.93;2.75;;;38.00;57.90;;;;;;6299473;28;20415;-83
2023/08/14 10:12:38;;;;;;;3.08;2.47;;;38.20;58.30;;;;;;6299393;28;20056;-83
2023/08/14 10:15:47;;;;;;;2.67;2.22;;;38.20;57.90;;;;;;6287058;28;20052;-83
2023/08/14 10:18:54;;;;;;;4.55;2.20;;;38.00;57.70;;;;;;6300222;28;20052;-84
2023/08/14 10:21:56;;;;;;;;;;;37.60;58.70;;;;;;6299702;28;20044;-84
2023/08/14 10:24:57;;;;;;;3.63;2.65;;;37.20;59.30;;;;;;6299893;28;19947;-85
2023/08/14 10:28:00;;;;;;;6.22;2.38;;;36.70;60.20;;;;;;6299300;28;20075;-84
2023/08/14 10:31:02;;;;;;;3.70;3.17;;;36.40;60.90;;;;;;6299094;28;20048;-84
2023/08/14 10:34:06;;;;;;;3.95;2.47;;;36.20;61.50;;;;;;6298835;28;20048;-85
2023/08/14 10:37:08;;;;;;;2.75;2.08;;;36.30;61.60;;;;;;6299447;28;20064;-84
2023/08/14 10:40:18;;;;;;;6.97;2.17;;;36.40;61.80;;;;;;6298317;28;20040;-84
2023/08/14 10:43:25;;;;;;;4.85;2.60;;;36.70;60.90;;;;;;6299536;28;20048;-84
2023/08/14 10:46:28;;;;;;;3.47;2.50;;;36.50;60.40;;;;;;6298774;28;20052;-85
2023/08/14 10:49:36;;;;;;;3.33;2.40;;;36.40;60.00;;;;;;6298466;28;20045;-84
2023/08/14 10:52:38;;;;;;;3.13;2.22;;;36.10;60.70;;;;;;6298739;28;20045;-84
2023/08/14 10:55:44;;;;;;;4.53;2.70;;;36.10;60.80;;;;;;6297430;28;20075;-84
2023/08/14 10:58:48;;;;;;;2.83;2.20;;;36.00;60.70;;;;;;6298041;28;20107;-84
2023/08/14 11:02:05;;;;;;;4.63;3.05;;;35.90;61.30;;;;;;6298419;28;20059;-84
2023/08/14 11:05:16;;;;;;;3.58;1.95;;;35.60;61.50;;;;;;6299039;28;20049;-85
2023/08/14 11:08:18;;;;;;;3.42;2.65;;;35.80;61.90;;;;;;6298784;28;20043;-85
2023/08/14 11:11:20;;;;;;;3.75;3.33;;;35.60;62.10;;;;;;6299651;28;20056;-85
2023/08/14 11:14:22;;;;;;;2.80;2.53;;;35.20;62.80;;;;;;6299571;28;20048;-84
2023/08/14 11:17:25;;;;;;;2.90;2.60;;;35.20;63.30;;;;;;6298469;28;20499;-85
2023/08/14 11:20:28;;;;;;;7.28;2.67;;;35.20;63.90;;;;;;6298513;28;20037;-85
2023/08/14 11:23:33;;;;;;;3.28;2.42;;;35.20;63.60;;;;;;6298975;28;20186;-85
2023/08/14 11:26:35;;;;;;;4.07;2.83;;;35.00;64.40;;;;;;6299425;28;20059;-84
2023/08/14 11:29:37;;;;;;;4.30;2.95;;;35.00;64.30;;;;;;6297877;28;20044;-85
2023/08/14 11:32:39;;;;;;;3.22;2.92;;;35.00;64.20;;;;;;6298604;28;20044;-84
2023/08/14 11:35:42;;;;;;;3.65;2.78;;;34.90;63.10;;;;;;6298871;28;20044;-84
2023/08/14 11:38:45;;;;;;;5.65;3.30;;;34.70;63.60;;;;;;6300306;28;20047;-84
2023/08/14 11:41:46;;;;;;;4.82;3.05;;;34.40;64.50;;;;;;6297944;28;20055;-85
2023/08/14 11:44:48;;;;;;;5.22;2.72;;;34.20;65.50;;;;;;6297627;28;20047;-85
2023/08/14 11:47:50;;;;;;;2.80;2.38;;;34.30;65.50;;;;;;6297511;28;20432;-84
2023/08/14 11:50:54;;;;;;;4.32;2.80;;;34.20;65.10;;;;;;6295893;28;20055;-84
2023/08/14 11:53:55;;;;;;;6.07;2.67;;;33.90;65.60;;;;;;6295501;28;20040;-85
2023/08/14 11:56:57;;;;;;;6.05;2.58;;;33.60;66.20;;;;;;6285566;28;20549;-84
2023/08/14 12:00:01;;;;;;;2.95;2.75;;;33.80;66.20;;;;;;6272992;28;20044;-86
2023/08/14 12:03:03;;;;;;;4.50;2.92;;;34.00;65.80;;;;;;6273943;28;20040;-84
2023/08/14 12:06:06;;;;;;;4.50;2.92;;;34.00;66.20;;;;;;6280816;28;20049;-85
2023/08/14 12:09:10;;;;;;;3.63;2.72;;;34.40;66.40;;;;;;6285164;28;20044;-85
2023/08/14 12:12:12;;;;;;;2.88;2.25;;;34.50;65.80;;;;;;6304273;28;20041;-85
2023/08/14 12:15:20;;;;;;;3.20;2.90;;;34.90;65.90;;;;;;6304127;28;20059;-84
2023/08/14 12:18:23;;;;;;;6.45;3.33;;;35.60;65.00;;;;;;6284428;28;20045;-86
2023/08/14 12:21:27;;;;;;;3.17;2.38;;;36.30;63.40;;;;;;6302701;28;20045;-85
2023/08/14 12:24:37;;;;;;;4.18;2.75;;;36.60;62.60;;;;;;6302547;28;20048;-85
2023/08/14 12:27:39;;;;;;;4.40;3.25;;;36.70;61.10;;;;;;6302796;28;20049;-84
2023/08/14 12:30:41;;;;;;;2.83;2.35;;;36.50;61.70;;;;;;6304852;28;20048;-83
2023/08/14 12:33:43;;;;;;;4.03;2.38;;;36.70;61.70;;;;;;6305234;28;20045;-82
2023/08/14 12:36:46;;;;;;;7.20;2.97;;;36.90;61.30;;;;;;6282588;28;20543;-83
2023/08/14 12:39:50;;;;;;;3.75;3.20;;;36.80;61.00;;;;;;6293784;28;20068;-83
2023/08/14 12:42:52;;;;;;;7.43;3.08;;;36.80;61.10;;;;;;6311422;28;20484;-85
2023/08/14 12:45:54;;;;;;;5.88;3.13;;;36.60;61.10;;;;;;6306949;28;20515;-82
2023/08/14 12:48:55;;;;;;;6.72;3.33;;;36.40;61.40;;;;;;6289771;28;20530;-83
2023/08/14 12:51:59;;;;;;;3.72;2.80;;;36.20;61.50;;;;;;6283701;28;20071;-85
2023/08/14 12:55:01;;;;;;;6.90;3.15;;;35.90;62.10;;;;;;6288475;28;20060;-83
2023/08/14 12:58:03;;;;;;;3.45;2.97;;;35.50;62.60;;;;;;6288427;28;20048;-84
2023/08/14 13:01:05;;;;;;;4.13;2.83;;;35.00;63.10;;;;;;6283782;28;20052;-84
2023/08/14 13:04:06;;;;;;;4.75;2.88;;;34.60;64.10;;;;;;6281734;28;20479;-84
2023/08/14 13:07:09;;;;;;;3.60;2.70;;;34.20;64.80;;;;;;6284482;28;20053;-83
2023/08/14 13:10:11;;;;;;;5.47;2.50;;;33.80;65.10;;;;;;6285174;28;20048;-84
2023/08/14 13:13:13;;;;;;;4.43;3.25;;;33.50;65.50;;;;;;6285687;28;20178;-83
2023/08/14 13:16:15;;;;;;;5.78;2.42;;;33.20;66.00;;;;;;6289250;28;20041;-85
2023/08/14 13:19:17;;;;;;;4.53;2.80;;;33.10;66.40;;;;;;6282701;28;20049;-82
2023/08/14 13:22:20;;;;;;;3.90;2.75;;;32.90;66.40;;;;;;6282835;28;20432;-82
2023/08/14 13:25:21;;;;;;;5.50;3.05;;;32.80;66.70;;;;;;6283837;28;20419;-83
2023/08/14 13:28:23;;;;;;;2.95;2.65;;;32.70;67.10;;;;;;6282984;28;20044;-83
2023/08/14 13:31:27;;;;;;;4.63;2.55;;;32.60;67.10;;;;;;6279995;28;20045;-82
2023/08/14 13:34:29;;;;;;;4.22;3.35;;;32.50;67.60;;;;;;6279122;28;20045;-84
2023/08/14 13:37:32;;;;;;;4.50;2.75;;;32.40;68.80;;;;;;6283870;28;20045;-83
2023/08/14 13:40:34;;;;;;;7.38;4.07;;;32.20;70.20;;;;;;6303433;28;20055;-83
2023/08/14 13:43:36;;;;;;;5.07;2.88;;;31.80;72.70;;;;;;6292142;28;20427;-80
2023/08/14 13:46:38;;;;;;;5.78;3.22;;;31.40;76.80;;;;;;6286478;28;20041;-82
2023/08/14 13:49:39;;;;;;;6.97;3.55;;;31.00;80.20;;;;;;6281079;28;20037;-82
2023/08/14 13:52:42;;;;;;;7.18;3.95;;;30.80;82.10;;;;;;6287601;28;20043;-83
2023/08/14 13:55:44;;;;;;;4.97;3.35;;;30.50;84.40;;;;;;6302483;28;20063;-82
2023/08/14 13:58:46;;;;;;;5.72;2.97;;;30.30;86.60;;;;;;6305530;28;20067;-82
2023/08/14 14:01:48;;;;;;;5.97;3.83;;;30.00;87.50;;;;;;6305095;28;20058;-81
2023/08/14 14:04:49;;;;;;;8.20;4.07;;;29.80;87.70;;;;;;6304759;28;20040;-82
2023/08/14 14:07:53;;;;;;;6.63;3.20;;;29.70;89.50;;;;;;6302934;28;20055;-82
2023/08/14 14:10:55;;;;;;;7.85;3.83;;;29.50;90.80;;;;;;6304480;28;20055;-83
2023/08/14 14:13:57;;;;;;;5.03;3.70;;;29.40;91.20;;;;;;6284541;28;20041;-84
2023/08/14 14:17:02;;;;;;;4.53;3.60;;;29.30;92.00;;;;;;6286310;28;20041;-83
2023/08/14 14:20:08;;;;;;;7.25;4.00;;;29.20;93.10;;;;;;6294975;28;20048;-83
2023/08/14 14:23:11;;;;;;;4.88;3.60;;;29.10;93.70;;;;;;6306264;28;20135;-83
2023/08/14 14:26:12;;;;;;;7.10;4.05;;;29.00;94.30;;;;;;6304595;28;20055;-83
2023/08/14 14:29:14;;;;;;;7.10;3.90;;;28.90;94.80;;;;;;6302263;28;20041;-83
2023/08/14 14:32:16;;;;;;;4.65;3.72;;;28.80;95.50;;;;;;6302306;28;20040;-83
2023/08/14 14:35:18;;;;;;;4.95;3.20;;;28.60;96.40;;;;;;6302339;28;20052;-82
2023/08/14 14:38:21;;;;;;;4.40;3.13;;;28.50;97.10;;;;;;6301310;28;20053;-83
2023/08/14 14:41:23;;;;;;;10.93;3.95;;;28.60;97.60;;;;;;6300239;28;20044;-81
2023/08/14 14:44:25;;;;;;;6.43;3.45;;;28.60;97.60;;;;;;6301348;28;20053;-83
2023/08/14 14:47:27;;;;;;;10.98;3.92;;;28.80;97.10;;;;;;6286510;28;20082;-81
2023/08/14 14:54:08;;;;;;;3.50;3.05;;;28.90;97.00;;;;;;6268746;28;20638;-84
2023/08/14 14:57:10;;;;;;;4.18;3.78;;;28.90;97.30;;;;;;6273875;28;20049;-82
2023/08/14 15:00:18;;;;;;;6.65;4.32;;;29.00;97.70;;;;;;6274989;28;20560;-83
2023/08/14 15:03:23;;;;;;;;;;;29.10;97.90;;;;;;6279444;28;20148;-81
2023/08/14 15:06:25;;;;;;;6.30;3.75;;;29.30;97.80;;;;;;6298875;28;19977;-83
2023/08/14 15:09:28;;;;;;;7.88;3.55;;;29.60;97.60;;;;;;6299268;28;20040;-82
2023/08/14 15:12:32;;;;;;;4.13;3.15;;;29.90;96.40;;;;;;6279371;28;20510;-81
2023/08/14 15:15:56;;;;;;;5.20;3.17;;;30.10;94.80;;;;;;6298189;28;20119;-82
2023/08/14 15:18:58;;;;;;;4.75;3.28;;;30.50;93.40;;;;;;6290921;28;20621;-84
2023/08/14 15:22:00;;;;;;;3.85;3.47;;;30.70;92.60;;;;;;6300169;28;20525;-81
2023/08/14 15:25:03;;;;;;;5.00;3.60;;;30.70;92.20;;;;;;6293379;28;20055;-81
2023/08/14 15:28:06;;;;;;;5.05;3.85;;;30.80;92.20;;;;;;6276018;28;20045;-82
2023/08/14 15:31:07;;;;;;;6.72;4.78;;;31.00;91.90;;;;;;6276207;28;20411;-82
2023/08/14 15:34:09;;;;;;;8.43;3.88;;;31.10;91.80;;;;;;6275954;28;20519;-81
2023/08/14 15:37:11;;;;;;;5.00;3.13;;;31.10;91.40;;;;;;6270779;28;20045;-82
2023/08/14 15:40:15;;;;;;;4.05;3.33;;;31.40;91.50;;;;;;6271323;28;20044;-81
2023/08/14 15:43:16;;;;;;;5.15;3.08;;;31.90;90.50;;;;;;6275882;28;20136;-81
2023/08/14 15:46:18;;;;;;;5.50;3.30;;;32.30;88.70;;;;;;6296865;28;20045;-81
2023/08/14 15:49:20;;;;;;;6.35;2.58;;;32.60;86.80;;;;;;6279389;28;20131;-79
2023/08/14 15:52:27;;;;;;;4.47;2.83;;;32.90;85.90;;;;;;6299137;28;20047;-82